RJSM METAR and TAF | Updated Today

RJSM METAR

Misawa Air Base

Observation time: 10 min. ago

RJSM 052000Z 20008KT 9999 FEW025 SCT040 BKN/// M02/M05 Q1017

Need help? Read our tutorial on how to read METARs or read the parsed version below.

Misawa Air Base (RJSM) METAR

  • Weather conditions on Sun, 05 Feb 2023 20:00:00 +0000 (10 min. ago):
  • Present conditions: Dry
  • Clouds: A few at 762 meters; scattered at 1219 meters; broken sky
  • Visibility: Greater than 10 km
  • Wind: 200 degrees at 8 knots
  • Temperature: -2 celsius
  • Dew point: -5 celsius
  • Pressure: 1017 millibars
  • Remarks: None


Useful to know...